createdAt,value
2019-05-13T00:02:23.995Z,9.03
2019-05-13T00:04:55.062Z,5.40
2019-05-13T00:07:26.018Z,9.13
2019-05-13T00:09:57.004Z,3.95
2019-05-13T00:12:27.954Z,7.15
2019-05-13T00:14:58.955Z,6.33
2019-05-13T00:17:29.902Z,10.20
2019-05-13T00:20:00.858Z,7.60
2019-05-13T00:22:33.972Z,7.17
2019-05-13T00:25:07.191Z,8.20
2019-05-13T00:27:38.421Z,7.12
2019-05-13T00:30:09.725Z,11.08
2019-05-13T00:32:44.329Z,7.05
2019-05-13T00:35:14.498Z,7.05
2019-05-13T00:37:45.455Z,5.90
2019-05-13T00:40:16.449Z,12.43
2019-05-13T00:42:47.451Z,7.53
2019-05-13T00:45:18.895Z,5.12
2019-05-13T00:47:49.887Z,9.40
2019-05-13T00:50:20.880Z,7.47
2019-05-13T00:52:53.668Z,5.45
2019-05-13T00:55:24.766Z,6.70
2019-05-13T00:57:55.726Z,7.67
2019-05-13T01:00:26.789Z,9.45
2019-05-13T01:02:57.749Z,6.08
2019-05-13T01:05:28.706Z,5.92
2019-05-13T01:07:59.670Z,9.63
2019-05-13T01:10:30.681Z,7.28
2019-05-13T01:13:04.295Z,7.33
2019-05-13T01:15:34.713Z,7.58
2019-05-13T01:18:05.832Z,7.15
2019-05-13T01:20:36.803Z,6.17
2019-05-13T01:23:07.787Z,6.03
2019-05-13T01:25:38.817Z,6.30
2019-05-13T01:28:09.807Z,8.98
2019-05-13T01:30:40.771Z,4.33
2019-05-13T01:33:14.184Z,4.45
2019-05-13T01:35:44.796Z,3.65
2019-05-13T01:38:15.735Z,7.00
2019-05-13T01:40:46.700Z,13.03
2019-05-13T01:43:17.698Z,9.15
2019-05-13T01:45:48.654Z,9.60
2019-05-13T01:48:20.305Z,6.37
2019-05-13T01:50:53.376Z,7.70
2019-05-13T01:53:24.513Z,10.88
2019-05-13T01:55:55.595Z,14.70
2019-05-13T01:58:26.564Z,9.53
2019-05-13T02:00:57.548Z,6.20
2019-05-13T02:03:28.542Z,8.93
2019-05-13T02:05:59.505Z,10.18
2019-05-13T02:08:30.497Z,7.62
2019-05-13T02:11:04.040Z,7.35
2019-05-13T02:13:34.689Z,6.50
2019-05-13T02:16:05.821Z,7.45
2019-05-13T02:18:36.792Z,13.58
2019-05-13T02:21:07.782Z,9.05
2019-05-13T02:23:38.738Z,4.97
2019-05-13T02:26:09.697Z,7.30
2019-05-13T02:28:40.659Z,9.00
2019-05-13T02:31:16.484Z,7.58
2019-05-13T02:33:44.290Z,8.65
2019-05-13T02:36:15.253Z,6.87
2019-05-13T02:38:46.214Z,7.97
2019-05-13T02:41:17.168Z,5.03
2019-05-13T02:43:48.134Z,9.83
2019-05-13T02:46:19.124Z,14.60
2019-05-13T02:48:52.759Z,7.62
2019-05-13T02:51:23.235Z,9.10
2019-05-13T02:53:54.288Z,3.00
2019-05-13T02:56:25.259Z,7.85
2019-05-13T02:58:56.219Z,11.48
2019-05-13T03:01:27.174Z,5.37
2019-05-13T03:03:58.414Z,12.25
2019-05-13T03:06:32.806Z,13.08
2019-05-13T03:09:03.115Z,8.15
2019-05-13T03:11:34.292Z,4.28
2019-05-13T03:14:05.335Z,5.72
2019-05-13T03:16:37.966Z,8.13
2019-05-13T03:19:13.269Z,7.97
2019-05-13T03:21:43.126Z,11.38
2019-05-13T03:24:14.104Z,8.73
2019-05-13T03:26:45.616Z,5.85
2019-05-13T03:29:16.583Z,9.23
2019-05-13T03:31:47.814Z,9.48
2019-05-13T03:34:18.784Z,8.25
2019-05-13T03:36:55.874Z,5.75
2019-05-13T03:39:22.645Z,3.92
2019-05-13T03:41:54.876Z,9.40
2019-05-13T03:44:26.504Z,6.12
2019-05-13T03:46:58.224Z,6.05
2019-05-13T03:49:32.673Z,8.68
2019-05-13T03:52:03.556Z,10.93
2019-05-13T03:54:35.694Z,10.40
2019-05-13T03:57:06.829Z,8.85
2019-05-13T03:59:37.776Z,5.25
2019-05-13T04:02:12.729Z,5.33
2019-05-13T04:04:42.631Z,9.00
2019-05-13T04:07:14.024Z,7.92
2019-05-13T04:09:45.378Z,8.53
2019-05-13T04:12:16.337Z,7.58
2019-05-13T04:14:47.272Z,5.28
2019-05-13T04:17:18.406Z,8.33
2019-05-13T04:19:52.773Z,8.98
2019-05-13T04:22:22.986Z,9.28
2019-05-13T04:24:54.327Z,10.20
2019-05-13T04:27:25.275Z,4.85
2019-05-13T04:29:56.220Z,9.25
2019-05-13T04:32:28.946Z,3.27
2019-05-13T04:35:03.437Z,10.53
2019-05-13T04:37:33.155Z,10.60
2019-05-13T04:40:06.857Z,10.53
2019-05-13T04:42:37.906Z,8.95
2019-05-13T04:45:09.047Z,10.75
2019-05-13T04:47:43.058Z,4.72
2019-05-13T04:50:12.926Z,4.30
2019-05-13T04:52:43.939Z,7.40
2019-05-13T04:55:14.968Z,7.40
2019-05-13T04:57:45.911Z,6.90
2019-05-13T05:00:23.333Z,4.45
2019-05-13T05:03:08.357Z,9.58
2019-05-13T05:06:04.820Z,11.25
2019-05-13T05:08:58.779Z,9.48
2019-05-13T05:12:03.089Z,8.30
2019-05-13T05:15:23.453Z,9.43
2019-05-13T05:18:37.532Z,10.20
2019-05-13T05:21:13.337Z,12.33
2019-05-13T05:24:14.939Z,6.78
2019-05-13T05:27:23.368Z,8.00
2019-05-13T05:30:13.630Z,12.58
2019-05-13T05:33:41.237Z,7.92
2019-05-13T05:36:57.978Z,10.53
2019-05-13T05:39:31.364Z,7.92
2019-05-13T05:42:02.860Z,6.72
2019-05-13T05:44:34.384Z,9.10
2019-05-13T05:47:05.752Z,7.35
2019-05-13T05:49:38.354Z,6.85
2019-05-13T05:52:12.278Z,9.10
2019-05-13T05:54:42.432Z,6.10
2019-05-13T05:57:13.425Z,11.03
2019-05-13T05:59:44.393Z,8.75
2019-05-13T06:02:15.545Z,6.58
2019-05-13T06:04:47.771Z,7.87
2019-05-13T06:07:18.759Z,5.95
2019-05-13T06:09:51.556Z,7.10
2019-05-13T06:12:22.598Z,9.38
2019-05-13T06:14:53.636Z,13.80
2019-05-13T06:17:24.634Z,10.35
2019-05-13T06:19:55.766Z,10.60
2019-05-13T06:22:29.363Z,8.53
2019-05-13T06:25:01.437Z,10.35
2019-05-13T06:27:32.516Z,9.20
2019-05-13T06:30:03.840Z,6.58
2019-05-13T06:32:35.593Z,10.23
2019-05-13T06:35:07.355Z,8.90
2019-05-13T06:37:38.710Z,15.03
2019-05-13T06:40:12.334Z,6.80
2019-05-13T06:42:43.464Z,10.05
2019-05-13T06:45:14.540Z,7.17
2019-05-13T06:47:45.512Z,12.37
2019-05-13T06:50:16.587Z,5.47
2019-05-13T06:52:47.620Z,7.50
2019-05-13T06:55:21.103Z,4.62
2019-05-13T06:57:51.870Z,5.10
2019-05-13T07:00:22.925Z,7.35
2019-05-13T07:02:53.876Z,11.63
2019-05-13T07:05:24.874Z,10.78
2019-05-13T07:07:55.840Z,9.45
2019-05-13T07:10:26.799Z,12.68
2019-05-13T07:12:57.786Z,11.10
2019-05-13T07:15:31.377Z,12.13
2019-05-13T07:18:02.520Z,9.13
2019-05-13T07:20:33.485Z,8.55
2019-05-13T07:23:04.435Z,7.62
2019-05-13T07:25:35.396Z,6.55
2019-05-13T07:28:06.422Z,7.20
2019-05-13T07:30:43.214Z,9.23
2019-05-13T07:33:14.355Z,7.50
2019-05-13T07:35:46.269Z,17.52
2019-05-13T07:38:17.870Z,9.95
2019-05-13T07:40:55.631Z,10.05
2019-05-13T07:43:26.618Z,13.55
2019-05-13T07:45:57.593Z,10.72
2019-05-13T07:48:28.616Z,11.97
2019-05-13T07:51:03.435Z,5.00
2019-05-13T07:53:32.425Z,6.62
2019-05-13T07:56:03.363Z,4.78
2019-05-13T07:58:37.601Z,4.33
2019-05-13T08:03:42.084Z,8.10
2019-05-13T08:06:12.391Z,9.20
2019-05-13T08:08:43.387Z,10.82
2019-05-13T08:11:14.330Z,5.78
2019-05-13T08:13:45.389Z,6.70
2019-05-13T08:16:16.335Z,6.05
2019-05-13T08:18:47.790Z,6.97
2019-05-13T08:21:18.763Z,11.20
2019-05-13T08:23:52.251Z,9.78
2019-05-13T08:26:22.381Z,7.60
2019-05-13T08:29:00.755Z,3.15
2019-05-13T08:31:25.998Z,5.05
2019-05-13T08:33:56.956Z,5.90
2019-05-13T08:36:27.920Z,6.47
2019-05-13T08:38:58.923Z,8.90
2019-05-13T08:41:32.286Z,6.67
2019-05-13T08:44:02.803Z,6.53
2019-05-13T08:46:34.487Z,1.95
2019-05-13T08:49:05.708Z,6.30
2019-05-13T08:51:36.704Z,5.35
2019-05-13T08:54:11.304Z,9.55
2019-05-13T08:56:41.648Z,6.00
2019-05-13T08:59:12.762Z,7.45
2019-05-13T09:01:44.801Z,3.85
2019-05-13T09:04:15.773Z,6.60
2019-05-13T09:06:46.734Z,4.53
2019-05-13T09:09:17.728Z,6.37
2019-05-13T09:11:48.692Z,4.45
2019-05-13T09:14:21.911Z,3.08
2019-05-13T09:16:52.757Z,4.58
2019-05-13T09:19:23.746Z,7.28
2019-05-13T09:21:54.732Z,4.12
2019-05-13T09:24:33.165Z,6.47
2019-05-13T09:26:58.630Z,4.87
2019-05-13T09:29:31.914Z,3.65
2019-05-13T09:32:08.218Z,6.97
2019-05-13T09:34:41.982Z,4.37
2019-05-13T09:37:12.258Z,2.47
2019-05-13T09:39:43.295Z,9.65
2019-05-13T09:42:14.280Z,7.37
2019-05-13T09:44:45.274Z,3.22
2019-05-13T09:47:16.227Z,7.60
2019-05-13T09:49:47.182Z,3.20
2019-05-13T09:52:19.142Z,2.55
2019-05-13T09:54:52.367Z,2.35
2019-05-13T09:57:22.792Z,4.60
2019-05-13T09:59:53.812Z,4.83
2019-05-13T10:02:24.799Z,3.42
2019-05-13T10:04:55.764Z,4.50
2019-05-13T10:07:26.753Z,3.77
2019-05-13T10:09:57.718Z,3.12
2019-05-13T10:12:31.935Z,5.28
2019-05-13T10:15:03.488Z,2.15
2019-05-13T10:17:34.548Z,4.60
2019-05-13T10:20:08.785Z,3.00
2019-05-13T10:22:41.720Z,3.65
2019-05-13T10:25:17.410Z,3.65
2019-05-13T10:27:48.357Z,1.98
2019-05-13T10:30:21.788Z,4.22
2019-05-13T10:32:59.127Z,1.77
2019-05-13T10:35:27.314Z,2.47
2019-05-13T10:37:58.845Z,6.47
2019-05-13T10:40:32.741Z,1.20
2019-05-13T10:43:02.641Z,2.35
2019-05-13T10:45:33.568Z,3.60
2019-05-13T10:48:10.226Z,3.12
2019-05-13T10:50:37.654Z,3.45
2019-05-13T10:53:12.016Z,1.47
2019-05-13T10:55:42.243Z,1.12
2019-05-13T10:58:13.386Z,1.67
2019-05-13T11:00:51.925Z,1.75
2019-05-13T11:03:23.401Z,4.17
2019-05-13T11:05:54.417Z,1.67
2019-05-13T11:08:25.373Z,1.32
2019-05-13T11:10:56.410Z,0.85
2019-05-13T11:13:45.762Z,1.87
2019-05-13T11:16:02.333Z,2.33
2019-05-13T11:18:32.977Z,1.25
2019-05-13T11:21:03.963Z,2.67
2019-05-13T11:23:34.921Z,3.58
2019-05-13T11:26:05.897Z,1.22
2019-05-13T11:28:37.025Z,1.60
2019-05-13T11:31:07.983Z,1.30
2019-05-13T11:33:42.314Z,3.35
2019-05-13T11:36:12.850Z,1.75
2019-05-13T11:38:44.630Z,4.00
2019-05-13T11:41:15.596Z,1.40
2019-05-13T11:43:46.627Z,2.00
2019-05-13T11:46:17.593Z,0.98
2019-05-13T11:48:48.558Z,2.00
2019-05-13T11:51:19.545Z,1.62
2019-05-13T11:53:50.575Z,1.27
2019-05-13T11:56:23.221Z,1.27
2019-05-13T11:58:54.249Z,1.85
2019-05-13T12:01:25.259Z,2.00
2019-05-13T12:03:56.224Z,1.60
2019-05-13T12:06:27.183Z,3.52
2019-05-13T12:09:02.437Z,2.05
2019-05-13T12:11:33.306Z,2.25
2019-05-13T12:14:04.983Z,0.72
2019-05-13T12:16:35.965Z,1.77
2019-05-13T12:19:06.939Z,1.82
2019-05-13T12:21:43.214Z,1.20
2019-05-13T12:24:11.567Z,0.80
2019-05-13T12:26:43.801Z,1.70
2019-05-13T12:29:19.015Z,1.82
2019-05-13T12:31:47.413Z,1.27
2019-05-13T12:34:18.547Z,1.00
2019-05-13T12:36:49.550Z,1.52
2019-05-13T12:39:23.942Z,1.15
2019-05-13T12:41:54.043Z,3.20
2019-05-13T12:44:25.073Z,1.22
2019-05-13T12:46:56.216Z,2.08
2019-05-13T12:49:32.464Z,2.98
2019-05-13T12:52:03.717Z,2.52
2019-05-13T12:54:32.686Z,1.98
2019-05-13T12:57:03.954Z,4.58
2019-05-13T12:59:35.136Z,3.87
2019-05-13T13:02:06.098Z,1.82
2019-05-13T13:04:37.056Z,1.80
2019-05-13T13:07:08.025Z,0.85
2019-05-13T13:09:42.549Z,1.92
2019-05-13T13:12:11.651Z,1.80
2019-05-13T13:14:44.295Z,1.27
2019-05-13T13:17:15.332Z,0.88
2019-05-13T13:19:46.314Z,4.35
2019-05-13T13:22:17.368Z,2.85
2019-05-13T13:24:55.731Z,1.12
2019-05-13T13:27:37.801Z,3.80
2019-05-13T13:30:02.770Z,1.75
2019-05-13T13:32:26.608Z,1.90
2019-05-13T13:34:57.569Z,1.25
2019-05-13T13:37:28.747Z,3.00
2019-05-13T13:40:03.409Z,1.32
2019-05-13T13:42:33.264Z,1.65
2019-05-13T13:45:06.333Z,2.50
2019-05-13T13:47:38.504Z,1.92
2019-05-13T13:50:11.806Z,0.72
2019-05-13T13:52:45.615Z,1.98
2019-05-13T13:55:16.146Z,1.65
2019-05-13T13:57:47.359Z,3.50
2019-05-13T14:00:37.707Z,3.27
2019-05-13T14:02:54.094Z,4.83
2019-05-13T14:05:25.545Z,1.37
2019-05-13T14:07:56.489Z,2.35
2019-05-13T14:10:27.490Z,2.60
2019-05-13T14:13:02.305Z,1.77
2019-05-13T14:15:34.315Z,1.77
2019-05-13T14:18:05.206Z,4.53
2019-05-13T14:20:36.161Z,2.90
2019-05-13T14:23:07.137Z,3.08
2019-05-13T14:25:38.687Z,3.65
2019-05-13T14:28:09.678Z,3.35
2019-05-13T14:30:42.179Z,6.00
2019-05-13T14:33:13.317Z,4.40
2019-05-13T14:35:44.273Z,2.52
2019-05-13T14:38:15.302Z,1.70
2019-05-13T14:40:46.776Z,1.45
2019-05-13T14:43:17.999Z,1.95
2019-05-13T14:45:51.868Z,5.17
2019-05-13T14:48:22.384Z,1.92
2019-05-13T14:50:53.419Z,2.77
2019-05-13T14:53:24.383Z,1.25
2019-05-13T14:55:55.338Z,2.47
2019-05-13T14:58:26.313Z,3.00
2019-05-13T15:01:11.441Z,3.00
2019-05-13T15:03:32.396Z,4.00
2019-05-13T15:06:02.639Z,1.52
2019-05-13T15:08:33.621Z,1.52
2019-05-13T15:11:04.583Z,1.70
2019-05-13T15:13:35.551Z,8.15
2019-05-13T15:16:06.520Z,2.00
2019-05-13T15:18:37.484Z,2.90
2019-05-13T15:21:08.440Z,2.85
2019-05-13T15:23:39.406Z,2.27
2019-05-13T15:26:11.692Z,1.67
2019-05-13T15:28:42.957Z,4.55
2019-05-13T15:31:13.977Z,1.20
2019-05-13T15:33:45.084Z,2.72
2019-05-13T15:36:16.050Z,4.37
2019-05-13T15:38:47.012Z,2.90
2019-05-13T15:41:17.977Z,4.25
2019-05-13T15:43:51.208Z,1.55
2019-05-13T15:46:22.057Z,5.53
2019-05-13T15:48:53.127Z,2.87
2019-05-13T15:51:24.086Z,4.53
2019-05-13T15:53:57.219Z,3.05
2019-05-13T15:56:27.714Z,2.20
2019-05-13T15:59:01.706Z,1.67
2019-05-13T16:01:31.526Z,2.15
2019-05-13T16:04:03.079Z,1.70
2019-05-13T16:06:34.180Z,0.68
2019-05-13T16:09:07.414Z,2.85
2019-05-13T16:11:41.240Z,2.23
2019-05-13T16:14:14.033Z,2.80
2019-05-13T16:16:44.064Z,1.92
2019-05-13T16:19:15.034Z,2.33
2019-05-13T16:21:46.286Z,1.92
2019-05-13T16:24:17.248Z,1.10
2019-05-13T16:26:48.207Z,3.15
2019-05-13T16:29:19.203Z,4.78
2019-05-13T16:31:51.938Z,7.20
2019-05-13T16:34:22.839Z,1.77
2019-05-13T16:36:53.804Z,4.37
2019-05-13T16:39:24.764Z,2.20
2019-05-13T16:41:55.722Z,1.25
2019-05-13T16:44:26.709Z,1.30
2019-05-13T16:46:57.699Z,2.33
2019-05-13T16:49:28.660Z,1.55
2019-05-13T16:51:59.619Z,0.95
2019-05-13T16:54:32.923Z,2.45
2019-05-13T16:57:03.253Z,0.82
2019-05-13T16:59:34.242Z,2.80
2019-05-13T17:02:05.235Z,2.05
2019-05-13T17:04:36.226Z,1.20
2019-05-13T17:07:07.186Z,4.25
2019-05-13T17:09:38.178Z,2.52
2019-05-13T17:12:12.138Z,0.90
2019-05-13T17:14:42.096Z,1.92
2019-05-13T17:17:13.072Z,1.27
2019-05-13T17:19:44.062Z,1.50
2019-05-13T17:22:15.024Z,1.35
2019-05-13T17:24:46.049Z,2.98
2019-05-13T17:27:17.007Z,2.55
2019-05-13T17:29:48.343Z,1.15
2019-05-13T17:32:19.332Z,1.87
2019-05-13T17:34:51.931Z,2.95
2019-05-13T17:37:22.890Z,1.77
2019-05-13T17:39:53.858Z,0.95
2019-05-13T17:42:24.819Z,5.95
2019-05-13T17:44:56.750Z,2.33
2019-05-13T17:47:28.268Z,0.95
2019-05-13T17:50:01.026Z,1.35
2019-05-13T17:52:33.684Z,0.85
2019-05-13T17:55:06.485Z,0.55
2019-05-13T17:57:37.437Z,1.35
2019-05-13T18:00:08.757Z,1.20
2019-05-13T18:02:42.046Z,1.15
2019-05-13T18:05:12.828Z,1.98
2019-05-13T18:07:44.726Z,3.50
2019-05-13T18:10:17.401Z,1.75
2019-05-13T18:12:48.375Z,3.15
2019-05-13T18:15:19.404Z,0.88
2019-05-13T18:17:52.285Z,0.90
2019-05-13T18:20:23.059Z,4.90
2019-05-13T18:22:54.033Z,1.60
2019-05-13T18:25:24.989Z,2.25
2019-05-13T18:27:55.960Z,0.30
2019-05-13T18:30:26.934Z,1.70
2019-05-13T18:32:57.893Z,0.82
2019-05-13T18:35:31.447Z,3.72
2019-05-13T18:38:02.580Z,1.42
2019-05-13T18:40:33.528Z,3.22
2019-05-13T18:43:04.524Z,3.33
2019-05-13T18:45:35.486Z,4.75
2019-05-13T18:48:06.448Z,2.62
2019-05-13T18:50:37.399Z,2.47
2019-05-13T18:53:08.393Z,0.88
2019-05-13T18:55:41.460Z,0.65
2019-05-13T18:58:12.018Z,4.45
2019-05-13T19:00:43.891Z,2.35
2019-05-13T19:03:14.874Z,1.02
2019-05-13T19:05:45.883Z,1.37
2019-05-13T19:08:16.864Z,2.35
2019-05-13T19:10:47.826Z,2.47
2019-05-13T19:13:21.323Z,2.45
2019-05-13T19:15:54.566Z,2.49
2019-05-13T19:18:25.536Z,2.92
2019-05-13T19:20:56.531Z,1.25
2019-05-13T19:23:27.475Z,1.57
2019-05-13T19:25:58.465Z,2.17
2019-05-13T19:28:31.674Z,1.60
2019-05-13T19:31:04.099Z,5.80
2019-05-13T19:33:35.053Z,2.60
2019-05-13T19:36:06.039Z,3.75
2019-05-13T19:38:36.985Z,1.35
2019-05-13T19:41:07.962Z,0.98
2019-05-13T19:43:38.916Z,2.65
2019-05-13T19:46:09.889Z,2.02
2019-05-13T19:48:41.722Z,3.83
2019-05-13T19:51:12.797Z,1.12
2019-05-13T19:53:45.034Z,0.95
2019-05-13T19:56:16.093Z,2.67
2019-05-13T19:58:47.051Z,3.30
2019-05-13T20:01:18.025Z,2.65
2019-05-13T20:03:51.612Z,1.12
2019-05-13T20:06:22.190Z,2.65
2019-05-13T20:08:54.782Z,3.25
2019-05-13T20:11:25.754Z,3.90
2019-05-13T20:13:56.881Z,1.72
2019-05-13T20:16:27.842Z,3.00
2019-05-13T20:19:02.569Z,3.75
2019-05-13T20:21:33.526Z,2.08
2019-05-13T20:24:04.481Z,1.60
2019-05-13T20:26:35.813Z,3.62
2019-05-13T20:29:09.423Z,1.42
2019-05-13T20:31:41.326Z,0.82
2019-05-13T20:34:13.635Z,3.05
2019-05-13T20:36:44.529Z,1.60
2019-05-13T20:39:15.588Z,1.92
2019-05-13T20:41:46.535Z,2.25
2019-05-13T20:44:17.521Z,3.67
2019-05-13T20:46:51.667Z,2.37
2019-05-13T20:49:21.957Z,3.05
2019-05-13T20:51:52.899Z,2.60
2019-05-13T20:54:23.930Z,1.27
2019-05-13T20:56:54.889Z,3.67
2019-05-13T20:59:25.849Z,1.80
2019-05-13T21:01:56.852Z,2.15
2019-05-13T21:04:27.809Z,3.17
2019-05-13T21:06:58.766Z,2.98
2019-05-13T21:09:31.667Z,4.20
2019-05-13T21:12:02.508Z,4.50
2019-05-13T21:14:33.508Z,1.47
2019-05-13T21:17:04.490Z,2.85
2019-05-13T21:19:39.617Z,1.90
2019-05-13T21:22:08.108Z,2.47
2019-05-13T21:24:41.087Z,3.37
2019-05-13T21:27:12.105Z,2.50
2019-05-13T21:29:43.206Z,4.55
2019-05-13T21:32:17.387Z,3.92
2019-05-13T21:34:46.884Z,5.12
2019-05-13T21:37:17.872Z,1.67
2019-05-13T21:39:49.204Z,5.05
2019-05-13T21:42:21.590Z,2.55
2019-05-13T21:44:52.713Z,2.70
2019-05-13T21:47:25.659Z,2.74
2019-05-13T21:49:56.628Z,2.00
2019-05-13T21:52:27.596Z,4.58
2019-05-13T21:54:58.582Z,2.12
2019-05-13T21:57:32.877Z,1.62
2019-05-13T22:00:02.591Z,3.00
2019-05-13T22:02:34.217Z,2.02
2019-05-13T22:05:05.208Z,1.55
2019-05-13T22:07:36.173Z,3.80
2019-05-13T22:10:07.630Z,3.20
2019-05-13T22:12:38.594Z,1.17
2019-05-13T22:15:09.775Z,2.95
2019-05-13T22:17:42.255Z,2.30
2019-05-13T22:20:13.276Z,2.83
2019-05-13T22:22:44.337Z,3.15
2019-05-13T22:25:15.366Z,2.25
2019-05-13T22:27:46.325Z,3.55
2019-05-13T22:30:17.360Z,2.98
2019-05-13T22:32:49.490Z,2.67
2019-05-13T22:35:21.752Z,2.50
2019-05-13T22:37:52.914Z,2.40
2019-05-13T22:40:23.894Z,3.10
2019-05-13T22:42:56.613Z,1.07
2019-05-13T22:45:27.980Z,3.17
2019-05-13T22:47:58.964Z,2.58
2019-05-13T22:50:31.035Z,1.85
2019-05-13T22:53:02.578Z,2.30
2019-05-13T22:55:33.535Z,2.58
2019-05-13T22:58:04.508Z,1.42
2019-05-13T23:00:35.464Z,3.72
2019-05-13T23:03:06.456Z,1.82
2019-05-13T23:05:37.417Z,3.15
2019-05-13T23:08:08.412Z,4.33
2019-05-13T23:10:39.368Z,3.47
2019-05-13T23:13:10.324Z,3.05
2019-05-13T23:15:41.322Z,2.22
2019-05-13T23:18:12.277Z,2.50
2019-05-13T23:20:43.236Z,2.37
2019-05-13T23:23:14.194Z,4.03
2019-05-13T23:25:45.186Z,3.25
2019-05-13T23:28:16.135Z,3.25
2019-05-13T23:30:47.184Z,10.75
2019-05-13T23:33:18.139Z,8.40
2019-05-13T23:35:49.395Z,3.17
2019-05-13T23:38:21.413Z,2.27
2019-05-13T23:40:52.546Z,3.27
2019-05-13T23:43:23.504Z,4.10
2019-05-13T23:45:54.508Z,3.27
2019-05-13T23:48:25.669Z,3.77
2019-05-13T23:51:04.935Z,7.20
2019-05-13T23:53:35.899Z,1.12
2019-05-13T23:56:06.861Z,2.95
2019-05-13T23:58:37.813Z,4.42
